Time;durP1;ratioP1;P1;durP2;ratioP2;P2;SDS_P1;SDS_P2;PMS_P1;PMS_P2;Temp;Humidity;BMP_temperature;BMP_pressure;BME280_temperature;BME280_humidity;BME280_pressure;Samples;Min_cycle;Max_cycle;Signal;HPM_P1;HPM_P2
2022/06/19 00:01:16;;;;;;;6.17;2.47;;;-40.00;99.30;;;;;;5139031;27;20587;-66
2022/06/19 00:03:46;;;;;;;7.03;3.07;;;-40.00;99.00;;;;;;5138995;27;20165;-67
2022/06/19 00:06:13;;;;;;;5.87;2.70;;;-40.00;98.80;;;;;;5138797;27;20453;-65
2022/06/19 00:08:39;;;;;;;8.53;2.27;;;-40.00;98.60;;;;;;5138729;27;20588;-66
2022/06/19 00:11:07;;;;;;;3.97;2.37;;;-40.00;98.60;;;;;;5139000;27;20604;-66
2022/06/19 00:13:33;;;;;;;6.33;2.10;;;-40.00;99.20;;;;;;5137701;27;20519;-67
2022/06/19 00:15:59;;;;;;;9.33;2.23;;;-40.00;98.80;;;;;;5138740;27;20173;-67
2022/06/19 00:18:25;;;;;;;11.67;2.57;;;-40.00;98.80;;;;;;5138926;27;20161;-68
2022/06/19 00:20:52;;;;;;;4.53;2.07;;;-40.00;98.90;;;;;;5138623;27;20189;-68
2022/06/19 00:23:17;;;;;;;5.97;2.63;;;-40.00;98.30;;;;;;5138326;27;20200;-66
2022/06/19 00:25:44;;;;;;;5.70;2.33;;;-40.00;98.50;;;;;;5138668;27;20201;-72
2022/06/19 00:28:09;;;;;;;7.17;2.47;;;-40.00;98.70;;;;;;5138466;27;20173;-69
2022/06/19 00:30:35;;;;;;;3.90;2.77;;;-40.00;98.60;;;;;;5138425;27;20165;-67
2022/06/19 00:33:02;;;;;;;5.73;2.70;;;-40.00;98.80;;;;;;5138364;27;20173;-67
2022/06/19 00:35:28;;;;;;;4.23;2.30;;;-40.00;98.50;;;;;;5138249;27;20557;-66
2022/06/19 00:37:55;;;;;;;5.43;2.20;;;-40.00;98.80;;;;;;5137860;27;20241;-66
2022/06/19 00:40:22;;;;;;;6.93;1.80;;;-40.00;98.90;;;;;;5138352;27;20213;-68
2022/06/19 00:42:48;;;;;;;7.30;3.03;;;-40.00;98.90;;;;;;5138042;27;20165;-67
2022/06/19 00:45:32;;;;;;;7.77;3.57;;;-40.00;99.20;;;;;;5138264;27;20162;-65
2022/06/19 00:47:59;;;;;;;3.83;2.70;;;-40.00;99.20;;;;;;5138673;27;20506;-67
2022/06/19 00:50:34;;;;;;;6.40;2.40;;;-40.00;99.30;;;;;;5138251;27;20166;-70
2022/06/19 00:53:05;;;;;;;4.33;1.90;;;-40.00;99.40;;;;;;5137580;27;20239;-69
2022/06/19 00:55:38;;;;;;;5.07;2.27;;;-40.00;99.10;;;;;;5138276;27;20173;-66
2022/06/19 00:58:30;;;;;;;12.03;2.80;;;-40.00;98.70;;;;;;5138631;27;20168;-69
2022/06/19 01:01:05;;;;;;;19.40;2.90;;;-40.00;99.00;;;;;;5138486;27;20472;-70
2022/06/19 01:03:56;;;;;;;12.33;3.43;;;-40.00;99.80;;;;;;5138098;27;20165;-65
2022/06/19 01:06:23;;;;;;;15.47;4.03;;;-40.00;99.40;;;;;;5137947;27;20220;-65
2022/06/19 01:08:50;;;;;;;7.97;3.77;;;-40.00;99.70;;;;;;5138174;27;20206;-66
2022/06/19 01:11:18;;;;;;;10.00;3.10;;;-40.00;99.70;;;;;;5138323;27;20197;-64
2022/06/19 01:13:44;;;;;;;7.67;3.03;;;-40.00;99.90;;;;;;5137671;27;20595;-66
2022/06/19 01:16:10;;;;;;;7.97;2.90;;;-40.00;99.90;;;;;;5138385;27;20450;-66
2022/06/19 01:18:38;;;;;;;12.20;3.60;;;-40.00;99.90;;;;;;5136916;27;20174;-66
2022/06/19 01:21:48;;;;;;;6.73;3.00;;;-40.00;99.90;;;;;;5137786;27;20189;-65
2022/06/19 01:24:28;;;;;;;14.63;3.97;;;-40.00;99.90;;;;;;5132463;27;20728;-66
2022/06/19 01:27:00;;;;;;;6.77;4.43;;;-40.00;99.90;;;;;;5138496;27;20160;-67
2022/06/19 01:29:32;;;;;;;11.07;3.97;;;-40.00;99.50;;;;;;5138359;27;20214;-69
2022/06/19 01:32:02;;;;;;;6.37;2.80;;;-40.00;99.40;;;;;;5137799;27;20173;-66
2022/06/19 01:34:39;;;;;;;10.83;4.17;;;-40.00;99.20;;;;;;5136215;27;20165;-65
2022/06/19 01:37:20;;;;;;;16.40;3.80;;;-40.00;98.70;;;;;;5137681;27;20181;-66
2022/06/19 01:40:02;;;;;;;5.30;3.93;;;-40.00;98.90;;;;;;5137554;27;20244;-66
2022/06/19 01:42:29;;;;;;;14.20;3.87;;;-40.00;99.40;;;;;;5137588;27;20176;-66
2022/06/19 01:44:56;;;;;;;15.27;4.77;;;-40.00;98.00;;;;;;5137615;27;20506;-66
2022/06/19 01:47:25;;;;;;;8.07;2.90;;;-40.00;97.70;;;;;;5137586;27;20254;-67
2022/06/19 01:49:54;;;;;;;11.27;3.23;;;-40.00;97.20;;;;;;5137059;27;20166;-68
2022/06/19 01:52:22;;;;;;;12.63;3.97;;;-40.00;97.10;;;;;;5137395;27;20185;-64
2022/06/19 01:54:51;;;;;;;7.00;2.73;;;-40.00;95.90;;;;;;5137312;27;20181;-67
2022/06/19 01:57:18;;;;;;;10.37;2.77;;;-40.00;95.10;;;;;;5137202;27;20157;-64
2022/06/19 01:59:45;;;;;;;20.50;3.43;;;-40.00;94.70;;;;;;5136969;27;20226;-68
2022/06/19 02:02:13;;;;;;;8.30;2.07;;;-40.00;93.30;;;;;;5135842;27;20260;-66
2022/06/19 02:04:40;;;;;;;12.50;3.13;;;-40.00;92.90;;;;;;5136612;27;20414;-65
2022/06/19 02:07:13;;;;;;;12.80;2.97;;;-40.00;92.00;;;;;;5137352;27;20472;-64
2022/06/19 02:09:39;;;;;;;6.07;1.97;;;-40.00;91.40;;;;;;5137099;27;20510;-64
2022/06/19 02:12:05;;;;;;;11.30;2.27;;;-40.00;89.20;;;;;;5137160;27;20165;-65
2022/06/19 02:14:32;;;;;;;8.37;2.00;;;-40.00;85.80;;;;;;5137190;27;20623;-65
2022/06/19 02:17:05;;;;;;;14.90;2.50;;;-40.00;85.50;;;;;;5136926;28;20497;-65
2022/06/19 02:19:31;;;;;;;11.30;2.73;;;-40.00;84.90;;;;;;5136913;27;20238;-66
2022/06/19 02:21:57;;;;;;;8.23;2.63;;;-40.00;84.20;;;;;;5137137;27;20597;-71
2022/06/19 02:24:26;;;;;;;8.70;1.93;;;-40.00;85.00;;;;;;5137212;28;20168;-69
2022/06/19 02:26:55;;;;;;;8.00;2.10;;;-40.00;86.50;;;;;;5137085;27;20552;-66
2022/06/19 02:29:21;;;;;;;6.93;1.83;;;-40.00;85.60;;;;;;5136592;27;20165;-66
2022/06/19 02:31:56;;;;;;;10.43;1.73;;;-40.00;87.60;;;;;;5136986;27;20450;-71
2022/06/19 02:34:44;;;;;;;8.50;2.30;;;-40.00;86.00;;;;;;5136488;28;20157;-66
2022/06/19 02:37:17;;;;;;;9.17;1.83;;;-40.00;86.30;;;;;;5136746;27;20216;-68
2022/06/19 02:40:25;;;;;;;8.10;2.20;;;-40.00;84.80;;;;;;5136360;28;20589;-65
2022/06/19 02:42:52;;;;;;;6.23;1.50;;;-40.00;84.80;;;;;;5128089;27;20174;-66
2022/06/19 02:45:23;;;;;;;7.40;2.20;;;-40.00;85.30;;;;;;5136655;27;20162;-68
2022/06/19 02:47:51;;;;;;;5.67;2.50;;;-40.00;84.20;;;;;;5136349;28;20217;-66
2022/06/19 02:50:22;;;;;;;7.20;1.60;;;-40.00;85.20;;;;;;5136512;28;20166;-66
2022/06/19 02:52:49;;;;;;;4.13;1.80;;;-40.00;84.50;;;;;;5136404;27;20189;-66
2022/06/19 02:55:15;;;;;;;6.87;1.63;;;-40.00;83.10;;;;;;5136346;27;20293;-65
2022/06/19 02:57:41;;;;;;;4.67;2.27;;;-40.00;83.30;;;;;;5136413;28;20165;-67
2022/06/19 03:00:12;;;;;;;9.50;2.10;;;-40.00;83.70;;;;;;5135334;28;20204;-70
2022/06/19 03:02:38;;;;;;;8.50;1.97;;;-40.00;84.60;;;;;;5135404;28;20192;-67
2022/06/19 03:05:05;;;;;;;8.90;2.23;;;-40.00;82.10;;;;;;5135464;28;20174;-66
2022/06/19 03:07:31;;;;;;;4.50;1.80;;;-40.00;80.50;;;;;;5136224;27;20204;-68
2022/06/19 03:09:57;;;;;;;5.67;1.23;;;-40.00;80.70;;;;;;5136621;27;20173;-66
2022/06/19 03:12:24;;;;;;;5.00;2.17;;;-40.00;81.50;;;;;;5136333;28;20165;-66
2022/06/19 03:14:50;;;;;;;6.90;1.17;;;-40.00;81.50;;;;;;5138751;27;20381;-66
2022/06/19 03:17:19;;;;;;;15.00;1.93;;;-40.00;81.70;;;;;;5140178;27;20506;-67
2022/06/19 03:19:45;;;;;;;4.53;1.60;;;-40.00;80.80;;;;;;5139987;27;20186;-67
2022/06/19 03:22:12;;;;;;;5.87;1.77;;;-40.00;82.50;;;;;;5140167;27;20275;-68
2022/06/19 03:24:39;;;;;;;8.40;1.70;;;-40.00;81.30;;;;;;5138996;27;20162;-70
2022/06/19 03:27:05;;;;;;;2.13;0.90;;;-40.00;79.80;;;;;;5139872;27;20563;-66
2022/06/19 03:29:32;;;;;;;7.30;1.87;;;-40.00;80.40;;;;;;5139919;27;20162;-68
2022/06/19 03:31:58;;;;;;;6.00;1.77;;;-40.00;81.50;;;;;;5139397;27;20185;-66
2022/06/19 03:34:24;;;;;;;2.40;1.67;;;-40.00;81.70;;;;;;5139652;27;20269;-67
2022/06/19 03:36:51;;;;;;;4.57;1.93;;;-40.00;81.70;;;;;;5139345;27;20572;-67
2022/06/19 03:39:17;;;;;;;2.07;1.73;;;-40.00;83.00;;;;;;5139730;27;20158;-67
2022/06/19 03:41:43;;;;;;;5.03;2.00;;;-40.00;82.00;;;;;;5138586;27;20173;-66
2022/06/19 03:44:10;;;;;;;11.60;1.83;;;-40.00;81.00;;;;;;5139737;27;20202;-67
2022/06/19 03:46:36;;;;;;;6.47;1.60;;;-40.00;82.70;;;;;;5138253;27;20183;-67
2022/06/19 03:49:03;;;;;;;8.07;1.87;;;-40.00;83.10;;;;;;5139519;27;20165;-68
2022/06/19 03:51:29;;;;;;;4.70;1.70;;;-40.00;84.40;;;;;;5138206;27;20200;-65
2022/06/19 03:53:56;;;;;;;5.87;1.90;;;-40.00;84.40;;;;;;5139190;27;20596;-67
2022/06/19 03:56:25;;;;;;;6.13;1.20;;;-40.00;83.80;;;;;;5139266;27;20169;-70
2022/06/19 03:58:51;;;;;;;5.83;1.60;;;-40.00;83.50;;;;;;5139224;27;20239;-66
2022/06/19 04:01:21;;;;;;;4.87;1.17;;;-40.00;84.90;;;;;;5138781;27;20204;-66
2022/06/19 04:03:49;;;;;;;4.63;1.43;;;-40.00;85.60;;;;;;5139167;27;20204;-67
2022/06/19 04:06:17;;;;;;;5.80;1.73;;;-40.00;83.80;;;;;;5139133;27;20236;-68
2022/06/19 04:08:46;;;;;;;5.60;1.20;;;-40.00;83.60;;;;;;5139201;27;20177;-67
2022/06/19 04:11:16;;;;;;;5.33;1.70;;;-40.00;81.90;;;;;;5138129;27;20242;-66
2022/06/19 04:13:42;;;;;;;7.83;1.77;;;-40.00;82.50;;;;;;5139031;27;20249;-68
2022/06/19 04:16:14;;;;;;;3.93;1.67;;;-40.00;83.80;;;;;;5138557;27;20169;-67
2022/06/19 04:18:39;;;;;;;4.40;1.13;;;-40.00;83.60;;;;;;5137996;27;20516;-68
2022/06/19 04:21:10;;;;;;;4.37;1.87;;;-40.00;83.30;;;;;;5138766;27;20284;-68
2022/06/19 04:23:36;;;;;;;4.50;1.77;;;-40.00;84.00;;;;;;5138763;27;20263;-71
2022/06/19 04:26:02;;;;;;;3.50;1.40;;;-40.00;83.30;;;;;;5136655;27;20186;-68
2022/06/19 04:28:27;;;;;;;4.40;1.23;;;-40.00;83.10;;;;;;5138659;27;20178;-66
2022/06/19 04:30:53;;;;;;;6.20;1.60;;;-40.00;82.90;;;;;;5138351;27;20166;-68
2022/06/19 04:33:20;;;;;;;4.13;1.20;;;-40.00;86.20;;;;;;5138450;27;20519;-68
2022/06/19 04:35:48;;;;;;;3.07;1.17;;;-40.00;83.60;;;;;;5138405;27;20173;-67
2022/06/19 04:38:14;;;;;;;5.13;1.57;;;-40.00;85.00;;;;;;5138237;27;20276;-69
2022/06/19 04:40:40;;;;;;;6.03;2.30;;;-40.00;84.60;;;;;;5138383;27;20254;-68
2022/06/19 04:43:06;;;;;;;5.30;1.27;;;-40.00;86.00;;;;;;5138277;27;20173;-68
2022/06/19 04:45:33;;;;;;;4.03;1.57;;;-40.00;84.80;;;;;;5138017;27;20193;-68
2022/06/19 04:47:59;;;;;;;7.13;1.73;;;-40.00;84.80;;;;;;5137031;27;20552;-69
2022/06/19 04:50:25;;;;;;;4.90;1.30;;;-40.00;84.30;;;;;;5138377;27;20175;-68
2022/06/19 04:52:51;;;;;;;3.10;0.80;;;-40.00;83.10;;;;;;5138087;27;20261;-66
2022/06/19 04:55:18;;;;;;;7.17;1.87;;;-40.00;82.40;;;;;;5137025;27;20173;-67
2022/06/19 04:57:44;;;;;;;5.37;2.47;;;-40.00;82.60;;;;;;5136975;27;20165;-68
2022/06/19 05:00:16;;;;;;;4.27;1.37;;;-40.00;84.10;;;;;;5137662;27;20200;-67
2022/06/19 05:02:43;;;;;;;4.20;1.80;;;-40.00;83.70;;;;;;5137859;27;20166;-67
2022/06/19 05:05:16;;;;;;;6.23;1.30;;;-40.00;83.60;;;;;;5137945;27;20169;-67
2022/06/19 05:07:42;;;;;;;6.17;1.97;;;-40.00;86.30;;;;;;5136786;27;20180;-70
2022/06/19 05:10:09;;;;;;;4.37;1.80;;;-40.00;85.10;;;;;;5137972;27;20165;-73
2022/06/19 05:12:36;;;;;;;2.50;0.97;;;-40.00;83.90;;;;;;5137737;27;20230;-69
2022/06/19 05:15:03;;;;;;;9.63;1.90;;;-40.00;84.00;;;;;;5137415;27;20165;-71
2022/06/19 05:17:29;;;;;;;3.60;1.40;;;-40.00;80.70;;;;;;5137693;27;20562;-68
2022/06/19 05:19:55;;;;;;;5.30;1.80;;;-40.00;81.30;;;;;;5137608;27;20272;-71
2022/06/19 05:22:20;;;;;;;1.80;0.80;;;-40.00;80.10;;;;;;5136730;27;20212;-69
2022/06/19 05:24:46;;;;;;;5.87;1.20;;;-40.00;78.00;;;;;;5137528;27;20196;-67
2022/06/19 05:27:12;;;;;;;3.13;1.23;;;-40.00;75.30;;;;;;5137027;27;20190;-68
2022/06/19 05:29:38;;;;;;;4.67;1.63;;;-40.00;75.70;;;;;;5137438;27;20172;-69
2022/06/19 05:32:05;;;;;;;1.57;1.17;;;-40.00;72.90;;;;;;5137362;27;20173;-68
2022/06/19 05:34:36;;;;;;;3.87;1.37;;;-40.00;71.80;;;;;;5137258;27;20595;-71
2022/06/19 05:37:03;;;;;;;4.33;0.90;;;-40.00;72.00;;;;;;5135995;27;20320;-67
2022/06/19 05:39:29;;;;;;;1.00;0.93;;;-40.00;73.00;;;;;;5136359;27;20603;-71
2022/06/19 05:41:57;;;;;;;4.77;1.37;;;-40.00;73.90;;;;;;5136997;27;20169;-67
2022/06/19 05:44:26;;;;;;;6.27;1.40;;;-40.00;74.80;;;;;;5137204;27;20197;-68
2022/06/19 05:46:53;;;;;;;1.87;1.07;;;-40.00;76.10;;;;;;5137436;27;20165;-71
2022/06/19 05:49:20;;;;;;;5.17;2.63;;;-40.00;77.00;;;;;;5137367;27;20578;-67
2022/06/19 05:51:46;;;;;;;1.10;0.90;;;-40.00;78.00;;;;;;5137161;27;20248;-69
2022/06/19 05:54:12;;;;;;;3.63;2.13;;;-40.00;78.70;;;;;;5137073;27;20249;-66
2022/06/19 05:56:38;;;;;;;2.63;1.30;;;-40.00;79.70;;;;;;5136790;27;20253;-66
2022/06/19 05:59:04;;;;;;;7.93;1.67;;;-40.00;81.70;;;;;;5136923;27;20576;-69
2022/06/19 06:01:30;;;;;;;2.73;1.37;;;-40.00;82.10;;;;;;5137049;27;20225;-68
2022/06/19 06:03:57;;;;;;;5.00;1.60;;;-40.00;84.20;;;;;;5136874;27;20165;-73
2022/06/19 06:06:30;;;;;;;5.40;1.07;;;-40.00;85.80;;;;;;5136839;27;20177;-67
2022/06/19 06:08:56;;;;;;;3.90;1.60;;;-40.00;85.80;;;;;;5135590;27;20331;-72
2022/06/19 06:11:23;;;;;;;4.87;1.87;;;-40.00;87.40;;;;;;5136510;27;20176;-70
2022/06/19 06:13:50;;;;;;;1.47;1.07;;;-40.00;85.90;;;;;;5136886;27;20165;-68
2022/06/19 06:16:18;;;;;;;3.13;1.43;;;-40.00;83.30;;;;;;5135746;28;20166;-75
2022/06/19 06:18:44;;;;;;;5.00;1.60;;;-40.00;83.50;;;;;;5136695;28;20169;-66
2022/06/19 06:21:15;;;;;;;9.20;1.87;;;-40.00;81.90;;;;;;5135521;28;20197;-67
2022/06/19 06:23:42;;;;;;;5.50;1.87;;;-40.00;81.10;;;;;;5136800;28;20172;-67
2022/06/19 06:26:18;;;;;;;3.63;1.00;;;-40.00;81.90;;;;;;5136668;27;20551;-67
2022/06/19 06:28:46;;;;;;;9.10;1.70;;;-40.00;83.50;;;;;;5135838;28;20490;-70
2022/06/19 06:31:13;;;;;;;2.73;1.20;;;-40.00;84.90;;;;;;5135925;28;20648;-66
2022/06/19 06:33:40;;;;;;;4.60;1.60;;;-40.00;86.30;;;;;;5136860;27;20208;-67
2022/06/19 06:36:06;;;;;;;4.57;1.23;;;-40.00;90.20;;;;;;5137143;27;20171;-67
2022/06/19 06:38:32;;;;;;;3.00;1.50;;;-40.00;89.00;;;;;;5135666;28;20192;-67
2022/06/19 06:40:59;;;;;;;10.23;1.70;;;-40.00;91.10;;;;;;5129580;27;20237;-69
2022/06/19 06:43:25;;;;;;;6.10;1.30;;;-40.00;94.40;;;;;;5131711;27;20513;-67
2022/06/19 06:45:52;;;;;;;4.07;1.23;;;-40.00;94.50;;;;;;5154406;27;20704;-69
2022/06/19 06:48:19;;;;;;;6.70;1.60;;;-40.00;93.00;;;;;;5135742;27;20176;-74
2022/06/19 06:50:46;;;;;;;1.30;1.20;;;-40.00;93.70;;;;;;5139173;27;20188;-70
2022/06/19 06:53:12;;;;;;;4.30;1.30;;;-40.00;93.80;;;;;;5138818;27;20490;-75
2022/06/19 06:55:40;;;;;;;4.77;1.30;;;-40.00;93.20;;;;;;5137824;27;20173;-72
2022/06/19 06:58:06;;;;;;;2.30;1.60;;;-40.00;96.70;;;;;;5136337;27;20173;-74
2022/06/19 07:00:32;;;;;;;3.60;1.40;;;-40.00;96.50;;;;;;5139035;27;20534;-75
2022/06/19 07:03:01;;;;;;;3.60;1.70;;;-40.00;98.30;;;;;;5138832;27;20161;-75
2022/06/19 07:05:27;;;;;;;4.50;1.63;;;-40.00;99.60;;;;;;5136326;27;20173;-75
2022/06/19 07:07:53;;;;;;;5.67;2.17;;;-40.00;99.90;;;;;;5139790;27;20641;-73
2022/06/19 07:10:19;;;;;;;15.17;3.13;;;-40.00;99.80;;;;;;5138944;27;20181;-76
2022/06/19 07:12:46;;;;;;;12.40;2.03;;;-40.00;99.90;;;;;;5138010;27;20230;-75
2022/06/19 07:15:12;;;;;;;8.33;1.53;;;-40.00;99.90;;;;;;5139324;27;20172;-72
2022/06/19 07:17:38;;;;;;;9.63;2.00;;;-40.00;99.90;;;;;;5139450;27;20173;-72
2022/06/19 07:20:05;;;;;;;12.60;2.53;;;-40.00;99.90;;;;;;5139320;27;20191;-71
2022/06/19 07:22:31;;;;;;;10.87;2.53;;;-40.00;99.90;;;;;;5139876;27;20170;-68
2022/06/19 07:24:56;;;;;;;7.03;1.40;;;-40.00;99.90;;;;;;5139455;27;20226;-68
2022/06/19 07:27:23;;;;;;;3.60;1.73;;;-40.00;99.90;;;;;;5138505;27;20178;-73
2022/06/19 07:29:48;;;;;;;6.63;2.37;;;-40.00;99.90;;;;;;5139853;27;20173;-70
2022/06/19 07:32:14;;;;;;;5.40;2.10;;;-40.00;99.90;;;;;;5139455;27;20474;-74
2022/06/19 07:34:42;;;;;;;12.97;3.10;;;-40.00;99.90;;;;;;5138860;27;20173;-73
2022/06/19 07:37:13;;;;;;;6.27;1.97;;;-40.00;99.90;;;;;;5139218;27;20492;-67
2022/06/19 07:39:39;;;;;;;5.93;2.60;;;-40.00;99.90;;;;;;5138030;27;20561;-74
2022/06/19 07:42:08;;;;;;;7.77;2.80;;;-40.00;99.90;;;;;;5136851;27;20238;-71
2022/06/19 07:44:38;;;;;;;9.23;2.60;;;-40.00;99.90;;;;;;5139871;27;20169;-68
2022/06/19 07:50:09;;;;;;;10.60;2.10;;;-40.00;99.90;;;;;;5138942;27;20261;-70
2022/06/19 07:52:38;;;;;;;5.43;2.70;;;-40.00;99.90;;;;;;5139023;27;20238;-69
2022/06/19 07:55:06;;;;;;;7.13;2.43;;;-40.00;99.90;;;;;;5139243;27;20193;-69
2022/06/19 07:57:32;;;;;;;4.07;2.67;;;-40.00;99.90;;;;;;5131205;27;20272;-68
2022/06/19 07:59:57;;;;;;;6.53;2.70;;;-40.00;99.90;;;;;;5137078;27;20604;-72
2022/06/19 08:02:24;;;;;;;9.00;2.53;;;-40.00;99.90;;;;;;5120624;27;20178;-68
2022/06/19 08:04:50;;;;;;;6.23;2.10;;;-40.00;99.90;;;;;;5118921;27;20176;-73
2022/06/19 08:07:17;;;;;;;6.13;2.80;;;-40.00;99.90;;;;;;5137715;27;20449;-67
2022/06/19 08:09:43;;;;;;;12.20;3.27;;;-40.00;99.90;;;;;;5138586;27;20184;-65
2022/06/19 08:12:10;;;;;;;10.90;3.07;;;-40.00;99.90;;;;;;5139050;27;20169;-70
2022/06/19 08:14:36;;;;;;;9.27;2.80;;;-40.00;99.90;;;;;;5139775;27;20263;-75
2022/06/19 08:17:03;;;;;;;9.67;2.33;;;-40.00;99.90;;;;;;5134359;27;20183;-71
2022/06/19 08:19:28;;;;;;;9.00;3.17;;;-40.00;99.90;;;;;;5138593;27;20257;-67
2022/06/19 08:21:54;;;;;;;5.60;2.47;;;-40.00;99.90;;;;;;5137571;27;20256;-71
2022/06/19 08:24:20;;;;;;;3.63;2.77;;;-40.00;99.90;;;;;;5137939;27;20169;-68
2022/06/19 08:26:47;;;;;;;6.93;2.70;;;-40.00;99.90;;;;;;5137808;27;20177;-71
2022/06/19 08:29:12;;;;;;;10.63;2.80;;;-40.00;99.90;;;;;;5132031;27;20229;-71
2022/06/19 08:31:38;;;;;;;5.80;2.50;;;-40.00;99.90;;;;;;5136138;27;20519;-70
2022/06/19 08:34:04;;;;;;;9.97;4.00;;;-40.00;99.90;;;;;;5135791;27;20656;-72
2022/06/19 08:36:33;;;;;;;11.67;3.03;;;-40.00;99.90;;;;;;5135045;27;20229;-70
2022/06/19 08:39:02;;;;;;;8.03;3.90;;;-40.00;99.90;;;;;;5137712;27;20189;-67
2022/06/19 08:41:54;;;;;;;8.43;3.53;;;-40.00;99.90;;;;;;5135632;27;20207;-69
2022/06/19 08:44:23;;;;;;;8.20;2.93;;;-40.00;99.90;;;;;;5126503;27;20174;-67
2022/06/19 08:47:04;;;;;;;6.50;3.17;;;-40.00;99.90;;;;;;5135658;27;20218;-67
2022/06/19 08:49:48;;;;;;;7.10;3.13;;;-40.00;99.90;;;;;;5135769;27;20252;-66
2022/06/19 08:52:32;;;;;;;5.10;3.07;;;-40.00;99.90;;;;;;5130879;27;20569;-69
2022/06/19 08:55:16;;;;;;;5.50;2.47;;;-40.00;99.90;;;;;;5133675;27;20165;-72
2022/06/19 08:58:08;;;;;;;5.90;2.83;;;-40.00;99.90;;;;;;5135254;27;20188;-70
2022/06/19 09:01:02;;;;;;;4.03;1.93;;;-40.00;99.90;;;;;;5129713;27;20631;-72
2022/06/19 09:06:39;;;;;;;6.87;2.80;;;-40.00;99.90;;;;;;5135892;27;20185;-70
2022/06/19 09:09:23;;;;;;;4.77;2.00;;;-40.00;99.90;;;;;;5136707;27;20185;-74
2022/06/19 09:12:08;;;;;;;7.07;3.00;;;-40.00;99.90;;;;;;5135945;27;20264;-68
2022/06/19 09:15:06;;;;;;;4.40;2.50;;;-40.00;99.90;;;;;;5136204;27;20220;-68
2022/06/19 09:17:42;;;;;;;2.67;1.97;;;-40.00;99.90;;;;;;5135138;27;20181;-67
2022/06/19 09:20:12;;;;;;;7.70;1.80;;;-40.00;99.90;;;;;;5136629;27;20441;-76
2022/06/19 09:22:47;;;;;;;4.20;2.47;;;-40.00;99.90;;;;;;5139393;27;20167;-72
2022/06/19 09:25:34;;;;;;;5.10;1.80;;;-40.00;99.90;;;;;;5136087;27;20171;-73
2022/06/19 09:28:20;;;;;;;7.53;3.30;;;-40.00;98.10;;;;;;5136127;27;20181;-65
2022/06/19 09:31:11;;;;;;;4.20;1.77;;;-40.00;97.60;;;;;;5129128;27;20192;-68
2022/06/19 09:33:47;;;;;;;5.60;2.20;;;-40.00;99.80;;;;;;5135270;27;20165;-70
2022/06/19 09:36:21;;;;;;;6.27;2.87;;;-40.00;99.70;;;;;;5134498;27;20356;-71
2022/06/19 09:39:23;;;;;;;6.10;3.47;;;-40.00;99.90;;;;;;5134589;27;20222;-66
2022/06/19 09:41:56;;;;;;;7.00;2.63;;;-40.00;99.80;;;;;;5127681;27;20192;-70
2022/06/19 09:44:34;;;;;;;4.20;2.53;;;-40.00;99.90;;;;;;5135629;27;20587;-67
2022/06/19 09:47:13;;;;;;;6.30;2.17;;;-40.00;99.90;;;;;;5136346;27;20161;-68
2022/06/19 09:49:48;;;;;;;8.03;2.80;;;-40.00;99.90;;;;;;5135280;27;20165;-71
2022/06/19 09:52:21;;;;;;;9.27;2.47;;;-40.00;99.90;;;;;;5135712;27;20692;-71
2022/06/19 09:54:49;;;;;;;6.77;2.00;;;-40.00;99.90;;;;;;5135857;27;20210;-73
2022/06/19 09:57:34;;;;;;;8.27;2.83;;;-40.00;99.90;;;;;;5135676;27;20174;-76
2022/06/19 10:00:09;;;;;;;4.77;2.20;;;-40.00;97.00;;;;;;5134727;27;20487;-71
2022/06/19 10:02:54;;;;;;;10.33;3.20;;;-40.00;99.30;;;;;;5135532;27;20177;-68
2022/06/19 10:05:45;;;;;;;6.83;2.13;;;-40.00;98.30;;;;;;5135442;27;20181;-70
2022/06/19 10:08:26;;;;;;;4.57;2.03;;;-40.00;99.90;;;;;;5136201;27;20169;-71
2022/06/19 10:10:57;;;;;;;4.43;2.63;;;-40.00;97.00;;;;;;5137256;27;20177;-71
2022/06/19 10:13:33;;;;;;;8.23;2.27;;;-40.00;97.00;;;;;;5137357;27;20173;-73
2022/06/19 10:16:01;;;;;;;7.13;2.27;;;-40.00;96.10;;;;;;5136721;27;20172;-65
2022/06/19 10:18:39;;;;;;;4.13;2.07;;;-40.00;96.60;;;;;;5136912;27;20169;-68
2022/06/19 10:22:13;;;;;;;9.87;3.03;;;-40.00;96.10;;;;;;5136518;27;20181;-66
2022/06/19 10:24:12;;;;;;;7.27;3.53;;;-40.00;94.10;;;;;;5137260;27;20603;-70
2022/06/19 10:26:56;;;;;;;6.90;2.47;;;-40.00;95.50;;;;;;5141290;27;20611;-66
2022/06/19 10:29:32;;;;;;;9.63;2.70;;;-40.00;95.30;;;;;;5140283;27;20197;-69
2022/06/19 10:32:14;;;;;;;5.27;3.43;;;-40.00;93.70;;;;;;5140191;27;20173;-67
2022/06/19 10:35:01;;;;;;;7.47;3.33;;;-40.00;94.50;;;;;;5137290;27;20285;-71
2022/06/19 10:37:46;;;;;;;6.13;2.70;;;-40.00;93.10;;;;;;5139224;27;20207;-74
2022/06/19 10:40:34;;;;;;;5.73;2.53;;;-40.00;92.40;;;;;;5138372;27;20200;-65
2022/06/19 10:43:15;;;;;;;7.97;2.73;;;-40.00;90.30;;;;;;5136859;27;20181;-69
2022/06/19 10:45:49;;;;;;;11.13;2.37;;;-40.00;87.90;;;;;;5129413;27;20173;-77
2022/06/19 10:48:28;;;;;;;4.53;2.63;;;-40.00;89.60;;;;;;5139251;27;20177;-67
2022/06/19 10:51:10;;;;;;;6.00;3.33;;;-40.00;92.30;;;;;;5138751;27;20252;-66
2022/06/19 10:54:26;;;;;;;6.70;2.20;;;-40.00;91.40;;;;;;5139439;27;20268;-66
2022/06/19 10:57:21;;;;;;;4.27;1.80;;;-40.00;92.10;;;;;;5105739;27;20236;-72
2022/06/19 10:59:48;;;;;;;8.00;2.83;;;-40.00;92.90;;;;;;5132723;27;20189;-71
2022/06/19 11:05:19;;;;;;;6.57;2.60;;;-40.00;90.20;;;;;;5141164;27;20276;-66
2022/06/19 11:07:46;;;;;;;6.50;2.50;;;-40.00;92.70;;;;;;5140694;27;20569;-67
2022/06/19 11:10:45;;;;;;;7.10;2.40;;;-40.00;90.50;;;;;;5140922;27;20239;-65
2022/06/19 11:13:12;;;;;;;4.63;3.00;;;-40.00;91.10;;;;;;5139832;27;20275;-68
2022/06/19 11:15:41;;;;;;;4.00;2.93;;;-40.00;89.90;;;;;;5139953;27;20165;-66
2022/06/19 11:18:25;;;;;;;7.73;3.47;;;-40.00;89.20;;;;;;5139978;27;20595;-73
2022/06/19 11:20:57;;;;;;;6.53;3.67;;;-40.00;91.40;;;;;;5139910;27;20261;-67
2022/06/19 11:23:34;;;;;;;4.13;2.30;;;-40.00;87.20;;;;;;5139803;27;20609;-68
2022/06/19 11:26:12;;;;;;;7.30;2.87;;;-40.00;87.70;;;;;;5137360;27;20207;-69
2022/06/19 11:29:09;;;;;;;4.77;2.63;;;-40.00;85.30;;;;;;5138382;27;20195;-72
2022/06/19 11:31:40;;;;;;;8.70;4.00;;;-40.00;84.80;;;;;;5119270;28;20165;-69
2022/06/19 11:37:22;;;;;;;9.10;2.77;;;-40.00;82.90;;;;;;5120174;27;20212;-68
2022/06/19 11:39:59;;;;;;;9.50;3.47;;;-40.00;85.80;;;;;;5137410;27;20635;-71
2022/06/19 11:42:34;;;;;;;6.30;2.33;;;-40.00;88.80;;;;;;5135370;27;20622;-70
2022/06/19 11:45:21;;;;;;;5.50;2.47;;;-40.00;88.70;;;;;;5137177;27;20173;-72
2022/06/19 11:47:54;;;;;;;9.53;3.60;;;-40.00;90.60;;;;;;5135757;27;20173;-73
2022/06/19 11:50:44;;;;;;;5.13;2.63;;;-40.00;91.50;;;;;;5138733;27;20221;-71
2022/06/19 11:53:24;;;;;;;6.30;3.10;;;-40.00;92.30;;;;;;5136663;27;20204;-69
2022/06/19 11:56:11;;;;;;;7.63;4.20;;;-40.00;92.20;;;;;;5135962;27;20252;-71
2022/06/19 11:58:43;;;;;;;7.17;3.23;;;-40.00;93.30;;;;;;5138545;27;20173;-71
2022/06/19 12:01:13;;;;;;;7.30;3.87;;;-40.00;96.90;;;;;;5136697;27;20189;-68
2022/06/19 12:03:58;;;;;;;7.53;3.50;;;-40.00;99.70;;;;;;5138512;27;20580;-69
2022/06/19 12:06:49;;;;;;;8.73;4.00;;;-40.00;99.90;;;;;;5137472;27;20237;-73
2022/06/19 12:09:26;;;;;;;8.80;3.87;;;-40.00;99.90;;;;;;5136515;27;20169;-71
2022/06/19 12:12:05;;;;;;;9.67;4.00;;;-40.00;99.90;;;;;;5135244;27;20204;-73
2022/06/19 12:14:50;;;;;;;6.80;3.50;;;-40.00;99.90;;;;;;5135825;27;20177;-71
2022/06/19 12:17:30;;;;;;;6.73;3.60;;;-40.00;97.60;;;;;;5134850;27;20226;-73
2022/06/19 12:20:18;;;;;;;6.67;3.07;;;-40.00;95.60;;;;;;5136070;27;20204;-73
2022/06/19 12:23:09;;;;;;;4.70;2.77;;;-40.00;98.30;;;;;;5135583;27;20208;-70
2022/06/19 12:25:48;;;;;;;6.07;3.27;;;-40.00;93.10;;;;;;5137711;27;20178;-73
2022/06/19 12:28:33;;;;;;;4.90;3.07;;;-40.00;88.10;;;;;;5136466;27;20591;-72
2022/06/19 12:31:08;;;;;;;3.87;2.67;;;-40.00;83.90;;;;;;5136756;27;20204;-70
2022/06/19 12:33:42;;;;;;;5.37;3.13;;;-40.00;85.10;;;;;;5136344;27;20453;-69
2022/06/19 12:36:17;;;;;;;6.07;3.50;;;-40.00;75.30;;;;;;5136602;27;20188;-72
2022/06/19 12:38:44;;;;;;;3.93;3.23;;;-40.00;76.80;;;;;;5134988;27;20180;-70
2022/06/19 12:41:32;;;;;;;5.50;3.67;;;-40.00;77.50;;;;;;5136781;27;21166;-73
2022/06/19 12:44:00;;;;;;;5.50;2.97;;;-40.00;75.70;;;;;;5135403;27;20165;-72
2022/06/19 12:47:08;;;;;;;3.90;2.47;;;-40.00;68.30;;;;;;5135566;27;20170;-77
2022/06/19 12:49:48;;;;;;;4.17;2.37;;;-40.00;70.00;;;;;;5119268;27;20237;-70
2022/06/19 12:52:26;;;;;;;3.70;2.27;;;-40.00;63.00;;;;;;5134371;27;20200;-75
2022/06/19 12:55:02;;;;;;;3.33;3.03;;;-40.00;65.40;;;;;;5131520;27;20197;-70
2022/06/19 12:58:06;;;;;;;5.27;3.13;;;-40.00;65.50;;;;;;5135173;27;20222;-68
2022/06/19 13:00:40;;;;;;;5.23;2.47;;;-40.00;72.00;;;;;;5133953;27;20272;-69
2022/06/19 13:03:32;;;;;;;3.87;2.10;;;-40.00;70.60;;;;;;5133733;27;20314;-72
2022/06/19 13:06:01;;;;;;;6.23;2.67;;;-40.00;65.90;;;;;;5134620;27;20659;-69
2022/06/19 13:08:52;;;;;;;11.53;3.73;;;-40.00;66.70;;;;;;5136457;27;20221;-68
2022/06/19 13:11:39;;;;;;;5.80;3.03;;;-40.00;68.40;;;;;;5136924;27;20166;-68
2022/06/19 13:14:26;;;;;;;7.80;2.77;;;-40.00;67.60;;;;;;5137458;27;20187;-68